CheckWX is a tool to help pilots better visualize weather data.  It is not intended as a substitute for an official pre-flight weather briefing.

06:04:33 UTC

KPWM TAF
Portland International Jetport Airport
Portland, Maine, USA
KPWM 260520Z 2606/2706 12004KT 2SM BR FEW005 OVC010 FM261000 04003KT 2SM BR BKN005 FM261300 04003KT 4SM BR OVC012 FM261800 07007KT 5SM BR BKN045 FM262300 07005KT 2SM BR BKN012

Jun-26@
06:00 UTC

Jun-26 @ 06:00 UTC

Jun-26@
10:00 UTC

Jun-26 @ 10:00 UTC

KPWM 260520Z 2606/2706 12004KT 2SM BR FEW005 OVC010
Wind
  • 120° at 4 KTS
Conditions
Mist
Cloud Levels
  • Few at 500' AGL
  • Overcast at 1,000' AGL

Jun-26@
10:00 UTC

Jun-26 @ 10:00 UTC

Jun-26@
13:00 UTC

Jun-26 @ 13:00 UTC

FM261000 04003KT 2SM BR BKN005

From

From Standard forecast or significant change

Wind
  • 040° at 3 KTS
Conditions
Mist
Cloud Levels
  • Broken at 500' AGL

Jun-26@
13:00 UTC

Jun-26 @ 13:00 UTC

Jun-26@
18:00 UTC

Jun-26 @ 18:00 UTC

FM261300 04003KT 4SM BR OVC012

From

From Standard forecast or significant change

Wind
  • 040° at 3 KTS
Conditions
Mist
Cloud Levels
  • Overcast at 1,200' AGL

Jun-26@
18:00 UTC

Jun-26 @ 18:00 UTC

Jun-26@
23:00 UTC

Jun-26 @ 23:00 UTC

FM261800 07007KT 5SM BR BKN045

From

From Standard forecast or significant change

Wind
  • 070° at 7 KTS
Conditions
Mist
Cloud Levels
  • Broken at 4,500' AGL

Jun-26@
23:00 UTC

Jun-26 @ 23:00 UTC

Jun-27@
06:00 UTC

Jun-27 @ 06:00 UTC

FM262300 07005KT 2SM BR BKN012

From

From Standard forecast or significant change

Wind
  • 070° at 5 KTS
Conditions
Mist
Cloud Levels
  • Broken at 1,200' AGL